Time;durP1;ratioP1;P1;durP2;ratioP2;P2;SDS_P1;SDS_P2;PMS_P1;PMS_P2;Temp;Humidity;BMP_temperature;BMP_pressure;BME280_temperature;BME280_humidity;BME280_pressure;Samples;Min_cycle;Max_cycle;Signal;HPM_P1;HPM_P2
2022/04/09 04:02:17;;;;;;;9.38;1.27;;;3.80;99.90;;;;;;5187956;23;20050;-81
2022/04/09 04:04:43;;;;;;;8.13;1.05;;;3.70;99.90;;;;;;5000773;28;20045;-82
2022/04/09 04:07:09;;;;;;;10.10;1.23;;;3.70;99.90;;;;;;5016860;28;20045;-81
2022/04/09 04:09:34;;;;;;;5.43;1.15;;;3.70;99.90;;;;;;5017202;28;20041;-80
2022/04/09 04:12:00;;;;;;;14.02;2.55;;;3.70;99.90;;;;;;5016637;28;20485;-81
2022/04/09 04:14:28;;;;;;;10.13;1.23;;;3.70;99.90;;;;;;5016919;28;20454;-81
2022/04/09 04:16:54;;;;;;;8.02;1.40;;;3.60;99.90;;;;;;5016851;28;20044;-81
2022/04/09 04:19:19;;;;;;;10.18;1.48;;;3.70;99.90;;;;;;5016899;28;20042;-81
2022/04/09 04:21:45;;;;;;;7.93;1.38;;;3.70;99.90;;;;;;5016592;28;20042;-81
2022/04/09 04:24:10;;;;;;;5.55;1.23;;;3.70;99.90;;;;;;4999935;28;20038;-81
2022/04/09 04:26:36;;;;;;;7.47;1.42;;;3.70;99.90;;;;;;5015535;28;20084;-82
2022/04/09 04:29:02;;;;;;;10.10;1.40;;;3.70;99.90;;;;;;5016766;28;20121;-82
2022/04/09 04:31:28;;;;;;;11.63;1.63;;;3.80;99.90;;;;;;5016273;28;20553;-82
2022/04/09 04:33:53;;;;;;;6.03;1.30;;;3.90;99.90;;;;;;4999579;28;20049;-78
2022/04/09 04:36:19;;;;;;;9.13;1.90;;;4.00;99.90;;;;;;5016095;28;20375;-81
2022/04/09 04:38:46;;;;;;;6.57;1.58;;;4.00;99.90;;;;;;5016355;28;20042;-81
2022/04/09 04:41:12;;;;;;;6.63;1.23;;;4.10;99.90;;;;;;5015868;28;20048;-81
2022/04/09 04:43:37;;;;;;;7.25;2.00;;;4.20;99.90;;;;;;5016269;28;20046;-81
2022/04/09 04:46:03;;;;;;;9.98;1.52;;;4.30;99.90;;;;;;4999623;28;20474;-81
2022/04/09 04:48:31;;;;;;;2.63;0.80;;;4.40;99.90;;;;;;5001580;28;20049;-81
2022/04/09 04:50:58;;;;;;;5.07;1.13;;;4.40;99.90;;;;;;4999515;28;20046;-81
2022/04/09 04:53:24;;;;;;;6.70;1.05;;;4.40;99.90;;;;;;5000073;28;20116;-81
2022/04/09 04:55:49;;;;;;;7.88;1.30;;;4.40;99.90;;;;;;5017190;28;20042;-81
2022/04/09 04:58:19;;;;;;;5.72;0.90;;;4.40;99.90;;;;;;5016380;28;20057;-82
2022/04/09 05:00:45;;;;;;;7.03;1.25;;;4.30;99.90;;;;;;5016625;28;20050;-82
2022/04/09 05:03:11;;;;;;;10.32;1.23;;;4.30;99.90;;;;;;5015932;28;20053;-82
2022/04/09 05:05:37;;;;;;;9.40;1.30;;;4.30;99.90;;;;;;5017203;28;20038;-82
2022/04/09 05:08:03;;;;;;;3.63;1.02;;;4.30;99.90;;;;;;5016732;28;20034;-82
2022/04/09 05:10:28;;;;;;;8.50;1.08;;;4.30;99.90;;;;;;5015913;28;20041;-81
2022/04/09 05:12:54;;;;;;;7.32;1.27;;;4.30;99.90;;;;;;5015284;28;20393;-82
2022/04/09 05:15:20;;;;;;;6.15;2.42;;;4.30;99.90;;;;;;5015497;28;20046;-81
2022/04/09 05:17:46;;;;;;;7.05;1.33;;;4.30;99.90;;;;;;5015046;28;20054;-81
2022/04/09 05:20:14;;;;;;;4.20;1.40;;;4.30;99.90;;;;;;5015923;28;20393;-80
2022/04/09 05:22:43;;;;;;;7.18;1.25;;;4.30;99.90;;;;;;5014841;28;20046;-82
2022/04/09 05:25:10;;;;;;;8.07;1.40;;;4.30;99.90;;;;;;5014360;28;20044;-82
2022/04/09 05:27:37;;;;;;;5.50;1.10;;;4.30;99.90;;;;;;5015167;28;20517;-82
2022/04/09 05:30:04;;;;;;;7.93;1.42;;;4.40;99.90;;;;;;5014510;28;20048;-82
2022/04/09 05:32:30;;;;;;;6.40;1.42;;;4.40;99.90;;;;;;4999174;28;20041;-82
2022/04/09 05:34:56;;;;;;;10.85;1.50;;;4.40;99.90;;;;;;5016761;28;20064;-80
2022/04/09 05:37:22;;;;;;;9.85;2.53;;;4.40;99.90;;;;;;5015370;28;20041;-81
2022/04/09 05:39:47;;;;;;;8.77;1.50;;;4.40;99.90;;;;;;5016737;28;20045;-82
2022/04/09 05:42:14;;;;;;;12.27;2.10;;;4.40;99.90;;;;;;5017135;28;20052;-82
2022/04/09 05:44:39;;;;;;;9.18;1.92;;;4.30;99.90;;;;;;5016364;28;20462;-80
2022/04/09 05:47:05;;;;;;;14.50;2.10;;;4.40;99.90;;;;;;5015832;28;20421;-82
2022/04/09 05:49:31;;;;;;;8.98;1.65;;;4.40;99.90;;;;;;5017268;28;20536;-81
2022/04/09 05:51:57;;;;;;;17.02;2.28;;;4.40;99.90;;;;;;5016738;28;20038;-82
2022/04/09 05:54:24;;;;;;;7.18;1.75;;;4.40;99.90;;;;;;5015395;28;20069;-81
2022/04/09 05:56:50;;;;;;;7.75;1.85;;;4.40;99.90;;;;;;4998773;28;20038;-81
2022/04/09 05:59:16;;;;;;;9.90;1.70;;;4.40;99.90;;;;;;5015243;28;20049;-81
2022/04/09 06:01:42;;;;;;;10.65;2.30;;;4.40;99.90;;;;;;4997707;28;20042;-82
2022/04/09 06:04:07;;;;;;;12.48;2.08;;;4.40;99.90;;;;;;5015090;28;20097;-81
2022/04/09 06:06:33;;;;;;;12.07;1.90;;;4.50;99.90;;;;;;5016436;28;20064;-80
2022/04/09 06:08:59;;;;;;;10.95;2.33;;;4.50;99.90;;;;;;5016881;28;20033;-81
2022/04/09 06:11:24;;;;;;;7.05;2.05;;;4.60;99.90;;;;;;5015088;28;20544;-82
2022/04/09 06:13:50;;;;;;;11.60;2.33;;;4.70;99.90;;;;;;5015204;28;20045;-80
2022/04/09 06:16:16;;;;;;;13.05;1.80;;;4.80;99.90;;;;;;5014749;28;20485;-81
2022/04/09 06:18:42;;;;;;;6.85;1.58;;;4.90;99.90;;;;;;5015010;28;20367;-81
2022/04/09 06:21:09;;;;;;;9.90;1.60;;;4.90;99.90;;;;;;5014516;28;20086;-83
2022/04/09 06:23:35;;;;;;;4.72;1.30;;;5.00;99.90;;;;;;5016085;28;20038;-82
2022/04/09 06:26:01;;;;;;;13.95;1.85;;;5.00;99.90;;;;;;5014645;28;20390;-79
2022/04/09 06:28:27;;;;;;;9.13;2.08;;;5.10;99.90;;;;;;5016139;28;20548;-82
2022/04/09 06:30:53;;;;;;;9.77;1.77;;;5.10;99.90;;;;;;5014273;28;20551;-80
2022/04/09 06:33:20;;;;;;;8.27;1.92;;;5.30;99.90;;;;;;5014762;28;20046;-80
2022/04/09 06:35:47;;;;;;;8.30;1.73;;;5.50;99.90;;;;;;4998984;28;20510;-81
2022/04/09 06:38:13;;;;;;;11.75;1.52;;;5.60;99.90;;;;;;4999383;28;20108;-81
2022/04/09 06:40:39;;;;;;;10.38;2.08;;;5.80;99.90;;;;;;5016895;28;20038;-82
2022/04/09 06:43:05;;;;;;;11.20;1.33;;;5.90;99.90;;;;;;5016818;28;20107;-81
2022/04/09 06:45:31;;;;;;;8.10;1.30;;;5.90;99.90;;;;;;5015278;28;20065;-81
2022/04/09 06:47:59;;;;;;;5.63;1.95;;;5.90;99.90;;;;;;5016799;28;20025;-81
2022/04/09 06:50:25;;;;;;;6.75;1.17;;;5.90;99.90;;;;;;5018067;28;20065;-80
2022/04/09 06:52:51;;;;;;;6.30;1.38;;;5.80;99.90;;;;;;5018396;28;20064;-81
2022/04/09 06:55:16;;;;;;;6.88;1.50;;;5.70;99.90;;;;;;5021249;28;20049;-81
2022/04/09 06:57:43;;;;;;;8.18;2.92;;;5.70;99.90;;;;;;5006631;28;20113;-82
2022/04/09 07:00:11;;;;;;;9.23;1.35;;;5.70;99.90;;;;;;5015612;28;20056;-81
2022/04/09 07:02:37;;;;;;;12.20;1.73;;;5.80;99.90;;;;;;5015723;28;20418;-83
2022/04/09 07:05:02;;;;;;;8.55;1.33;;;5.70;99.90;;;;;;5016299;28;20121;-80
2022/04/09 07:07:29;;;;;;;12.32;1.58;;;5.80;99.90;;;;;;5015327;28;20124;-81
2022/04/09 07:10:06;;;;;;;14.77;2.20;;;5.90;99.90;;;;;;5015370;28;20038;-82
2022/04/09 07:12:32;;;;;;;8.88;1.52;;;6.10;99.90;;;;;;5016738;28;20385;-82
2022/04/09 07:14:58;;;;;;;8.00;1.73;;;6.20;99.90;;;;;;5015110;28;20058;-81
2022/04/09 07:17:24;;;;;;;13.60;2.85;;;6.30;99.90;;;;;;5014594;28;20038;-80
2022/04/09 07:19:51;;;;;;;13.40;1.70;;;6.30;99.90;;;;;;4999600;28;20547;-82
2022/04/09 07:22:16;;;;;;;9.40;1.75;;;6.40;99.90;;;;;;5014533;28;20149;-80
2022/04/09 07:24:42;;;;;;;7.82;1.40;;;6.30;99.90;;;;;;5015997;28;20394;-82
2022/04/09 07:27:08;;;;;;;7.88;1.75;;;6.40;99.90;;;;;;5016208;28;20053;-82
2022/04/09 07:29:33;;;;;;;12.55;2.22;;;6.40;99.90;;;;;;5015616;28;20082;-82
2022/04/09 07:31:59;;;;;;;9.02;1.55;;;6.40;99.90;;;;;;5015485;28;20398;-79
2022/04/09 07:34:24;;;;;;;8.18;1.73;;;6.40;99.90;;;;;;5014345;28;20046;-81
2022/04/09 07:36:50;;;;;;;6.18;1.20;;;6.50;99.90;;;;;;5014216;28;20455;-80
2022/04/09 07:39:17;;;;;;;12.85;1.23;;;6.50;99.90;;;;;;5014401;28;20061;-82
2022/04/09 07:41:42;;;;;;;5.65;1.38;;;6.50;99.90;;;;;;4998301;28;20038;-81
2022/04/09 07:44:08;;;;;;;8.85;1.13;;;6.60;99.90;;;;;;5015264;28;20472;-81
2022/04/09 07:46:34;;;;;;;7.57;1.58;;;6.60;99.90;;;;;;5014258;28;20041;-81
2022/04/09 07:49:00;;;;;;;6.38;1.20;;;6.70;99.90;;;;;;5015349;28;20038;-83
2022/04/09 07:51:26;;;;;;;9.07;1.83;;;6.80;99.90;;;;;;5013776;28;20493;-81
2022/04/09 07:53:51;;;;;;;10.68;1.10;;;6.80;99.90;;;;;;5013943;28;20425;-81
2022/04/09 07:56:17;;;;;;;4.75;1.00;;;6.90;99.90;;;;;;5014076;28;20133;-81
2022/04/09 07:58:43;;;;;;;14.10;1.60;;;7.00;99.90;;;;;;4997448;28;20033;-81
2022/04/09 08:01:09;;;;;;;11.15;1.27;;;7.10;99.90;;;;;;5015186;28;20042;-82
2022/04/09 08:03:34;;;;;;;7.60;1.52;;;7.20;99.90;;;;;;5017023;28;20041;-81
2022/04/09 08:06:00;;;;;;;8.02;1.20;;;7.40;99.90;;;;;;5016920;28;20075;-82
2022/04/09 08:08:25;;;;;;;4.95;1.25;;;7.40;99.90;;;;;;5017539;28;20478;-82
2022/04/09 08:10:51;;;;;;;7.50;1.05;;;7.50;99.90;;;;;;5018302;28;20052;-81
2022/04/09 08:13:18;;;;;;;5.80;1.10;;;7.70;99.90;;;;;;5000608;28;20443;-82
2022/04/09 08:15:44;;;;;;;6.05;0.98;;;7.80;99.90;;;;;;5017399;28;20049;-81
2022/04/09 08:18:10;;;;;;;8.23;1.58;;;7.90;99.90;;;;;;5016901;28;20449;-83
2022/04/09 08:20:37;;;;;;;2.47;0.70;;;8.00;99.90;;;;;;5017183;28;20125;-82
2022/04/09 08:23:04;;;;;;;6.93;1.00;;;8.00;99.90;;;;;;5018246;28;20037;-81
2022/04/09 08:25:30;;;;;;;4.40;0.60;;;7.90;99.90;;;;;;5018057;28;20077;-83
2022/04/09 08:27:56;;;;;;;3.88;0.65;;;7.80;99.90;;;;;;5015629;28;20042;-80
2022/04/09 08:30:22;;;;;;;2.95;0.50;;;7.70;99.90;;;;;;5016004;28;20053;-78
2022/04/09 08:32:56;;;;;;;2.20;0.50;;;7.70;99.90;;;;;;5017352;28;20041;-81
2022/04/09 08:35:22;;;;;;;3.13;0.50;;;7.60;99.90;;;;;;5016458;28;20041;-81
2022/04/09 08:37:55;;;;;;;2.50;0.60;;;7.60;99.90;;;;;;5015688;28;20069;-82
2022/04/09 08:40:21;;;;;;;1.83;0.45;;;7.80;99.90;;;;;;5016409;28;20394;-80
2022/04/09 08:42:48;;;;;;;3.40;0.40;;;8.40;99.90;;;;;;5015598;28;20044;-79
2022/04/09 08:45:15;;;;;;;2.08;0.50;;;8.90;99.90;;;;;;4999445;28;20497;-81
2022/04/09 08:47:42;;;;;;;5.43;1.20;;;9.20;99.90;;;;;;5015580;28;20096;-81
2022/04/09 08:50:12;;;;;;;5.63;1.15;;;9.40;99.90;;;;;;5015602;28;20092;-79
2022/04/09 08:52:42;;;;;;;3.88;1.23;;;9.30;99.90;;;;;;5015747;28;20046;-81
2022/04/09 08:55:13;;;;;;;5.60;1.58;;;9.20;99.90;;;;;;5015999;28;20088;-80
2022/04/09 08:57:39;;;;;;;7.55;1.20;;;9.40;99.90;;;;;;4999672;28;20489;-82
2022/04/09 09:00:10;;;;;;;4.05;0.90;;;9.40;99.90;;;;;;4999231;28;20076;-79
2022/04/09 09:02:37;;;;;;;4.95;0.90;;;9.40;99.90;;;;;;5015341;28;20048;-78
2022/04/09 09:05:04;;;;;;;5.25;0.98;;;9.20;99.90;;;;;;5015621;28;20050;-81
2022/04/09 09:07:30;;;;;;;10.10;1.15;;;9.00;99.90;;;;;;5016196;28;20033;-81
2022/04/09 09:10:15;;;;;;;5.85;0.88;;;9.20;99.90;;;;;;5016232;28;20167;-81
2022/04/09 09:12:41;;;;;;;6.65;1.30;;;9.20;99.90;;;;;;5015671;28;20042;-82
2022/04/09 09:15:07;;;;;;;5.22;0.93;;;9.10;99.90;;;;;;5015821;28;20053;-81
2022/04/09 09:17:33;;;;;;;9.93;2.28;;;9.10;99.90;;;;;;5015679;28;20046;-83
2022/04/09 09:19:59;;;;;;;7.28;1.23;;;9.00;99.90;;;;;;5015796;28;20128;-81
2022/04/09 09:22:42;;;;;;;10.63;1.35;;;9.20;99.90;;;;;;5015681;28;20393;-82
2022/04/09 09:25:10;;;;;;;8.07;1.77;;;9.40;99.90;;;;;;5017064;28;20034;-81
2022/04/09 09:27:37;;;;;;;7.32;1.15;;;9.20;99.90;;;;;;5017336;28;20042;-81
2022/04/09 09:30:09;;;;;;;12.00;1.50;;;8.90;99.90;;;;;;5015955;28;20495;-82
2022/04/09 09:32:35;;;;;;;6.95;1.58;;;8.70;99.90;;;;;;4999285;28;20037;-82
2022/04/09 09:35:01;;;;;;;8.13;1.20;;;8.80;99.90;;;;;;5015447;28;20045;-81
2022/04/09 09:37:28;;;;;;;7.43;1.48;;;8.80;99.90;;;;;;5015108;28;20327;-82
2022/04/09 09:39:55;;;;;;;10.70;1.98;;;8.80;99.90;;;;;;5015368;28;20042;-78
2022/04/09 09:42:22;;;;;;;10.15;1.45;;;8.80;99.90;;;;;;5014877;28;20038;-82
2022/04/09 09:44:48;;;;;;;8.63;1.50;;;9.20;99.90;;;;;;4999121;28;20524;-82
2022/04/09 09:47:17;;;;;;;7.88;1.23;;;9.40;99.90;;;;;;5015814;28;20042;-80
2022/04/09 09:49:59;;;;;;;6.90;1.40;;;9.40;99.90;;;;;;5015577;28;20034;-82
2022/04/09 09:52:30;;;;;;;10.73;1.50;;;9.40;99.90;;;;;;5015566;28;20045;-83
2022/04/09 09:55:10;;;;;;;5.82;1.20;;;9.30;99.90;;;;;;5017696;28;20046;-85
2022/04/09 09:57:38;;;;;;;9.75;1.60;;;9.00;99.90;;;;;;5016814;28;20100;-78
2022/04/09 10:00:10;;;;;;;8.25;1.38;;;8.90;99.90;;;;;;5015253;28;20042;-81
2022/04/09 10:02:38;;;;;;;10.27;1.92;;;8.40;99.90;;;;;;4998564;28;20053;-81
2022/04/09 10:05:05;;;;;;;8.90;1.85;;;8.20;99.90;;;;;;5015190;28;20038;-80
2022/04/09 10:07:30;;;;;;;12.60;1.70;;;8.10;99.90;;;;;;5014867;28;20083;-83
2022/04/09 10:09:56;;;;;;;6.10;1.20;;;8.10;99.90;;;;;;5015140;28;20046;-84
2022/04/09 10:12:25;;;;;;;6.40;1.20;;;8.20;99.90;;;;;;5016226;28;20048;-83
2022/04/09 10:14:59;;;;;;;9.55;1.95;;;8.20;99.90;;;;;;5014460;28;20073;-78
2022/04/09 10:17:26;;;;;;;8.75;1.73;;;7.90;99.90;;;;;;5016392;28;20038;-80
2022/04/09 10:19:59;;;;;;;9.98;1.33;;;7.70;99.90;;;;;;5013932;28;20489;-84
2022/04/09 10:22:41;;;;;;;6.32;1.42;;;7.20;99.90;;;;;;5014508;28;20453;-81
2022/04/09 10:25:08;;;;;;;7.38;1.30;;;6.80;99.90;;;;;;5013393;28;20144;-78
2022/04/09 10:27:47;;;;;;;10.82;1.20;;;6.60;99.90;;;;;;5014109;28;20042;-79
2022/04/09 10:30:19;;;;;;;7.97;1.48;;;6.40;99.90;;;;;;5015793;28;20378;-81
2022/04/09 10:32:48;;;;;;;9.48;1.77;;;6.30;99.90;;;;;;5014075;28;20366;-83
2022/04/09 10:35:31;;;;;;;5.80;0.95;;;6.20;99.90;;;;;;5014507;28;20061;-79
2022/04/09 10:38:14;;;;;;;4.15;0.90;;;5.90;99.90;;;;;;5014003;28;20049;-80
2022/04/09 10:40:50;;;;;;;5.18;0.95;;;5.80;99.90;;;;;;4998066;28;20129;-82
2022/04/09 10:43:22;;;;;;;;;;;5.70;99.90;;;;;;5014894;28;20456;-79
2022/04/09 10:46:03;;;;;;;9.05;1.10;;;5.70;99.90;;;;;;5015401;28;19917;-81
2022/04/09 10:48:30;;;;;;;5.95;1.10;;;5.70;99.90;;;;;;5014602;28;20094;-81
2022/04/09 10:51:02;;;;;;;6.47;1.33;;;5.70;99.90;;;;;;5013948;28;20058;-82
2022/04/09 10:53:30;;;;;;;9.10;1.10;;;5.80;99.90;;;;;;5015098;28;20056;-82
2022/04/09 10:56:29;;;;;;;7.65;1.30;;;6.10;99.90;;;;;;5015052;28;20041;-79
2022/04/09 10:59:13;;;;;;;9.07;1.15;;;6.50;99.90;;;;;;4999774;28;20100;-84
2022/04/09 11:01:48;;;;;;;13.38;2.03;;;6.80;99.90;;;;;;4997247;28;20069;-80
2022/04/09 11:04:34;;;;;;;8.43;1.40;;;7.00;99.90;;;;;;4997909;28;20096;-82
2022/04/09 11:07:12;;;;;;;6.70;1.10;;;7.40;99.90;;;;;;4997983;28;20042;-80
2022/04/09 11:09:53;;;;;;;7.95;1.35;;;7.40;99.90;;;;;;5014028;28;20558;-84
2022/04/09 11:12:25;;;;;;;8.63;1.35;;;7.30;99.90;;;;;;5014730;28;20045;-83
2022/04/09 11:14:59;;;;;;;7.28;1.15;;;7.20;99.90;;;;;;5016235;28;20100;-82
2022/04/09 11:17:32;;;;;;;10.77;1.58;;;6.80;99.90;;;;;;5017334;28;20050;-82
2022/04/09 11:20:14;;;;;;;6.53;1.23;;;6.60;99.90;;;;;;5032848;28;20045;-78
2022/04/09 11:22:48;;;;;;;5.15;1.42;;;6.40;99.90;;;;;;5010704;28;20034;-83
2022/04/09 11:25:22;;;;;;;4.53;0.95;;;6.30;99.90;;;;;;5015885;28;20033;-81
2022/04/09 11:27:49;;;;;;;9.23;1.30;;;6.40;99.90;;;;;;4998953;28;20089;-82
2022/04/09 11:30:15;;;;;;;6.93;1.40;;;6.50;99.90;;;;;;5015176;28;20045;-82
2022/04/09 11:32:41;;;;;;;5.20;1.00;;;6.70;99.90;;;;;;4998624;28;20038;-80
2022/04/09 11:35:10;;;;;;;4.90;1.33;;;6.60;99.90;;;;;;5014226;28;20041;-82
2022/04/09 11:37:48;;;;;;;5.82;1.58;;;6.70;99.90;;;;;;5018595;28;20096;-83
2022/04/09 11:40:14;;;;;;;5.88;0.90;;;6.90;99.90;;;;;;5000864;28;20087;-83
2022/04/09 11:42:54;;;;;;;8.65;1.33;;;7.10;99.90;;;;;;5018906;28;20030;-83
2022/04/09 11:45:23;;;;;;;7.70;1.73;;;7.10;99.90;;;;;;5019329;28;20112;-84
2022/04/09 11:47:50;;;;;;;7.88;1.52;;;7.00;99.90;;;;;;5019108;28;20481;-83
2022/04/09 11:50:16;;;;;;;3.45;1.10;;;6.90;99.90;;;;;;5017711;28;20050;-82
2022/04/09 11:52:42;;;;;;;8.85;1.05;;;6.90;99.90;;;;;;5017955;28;20034;-81
2022/04/09 11:55:12;;;;;;;6.35;1.00;;;7.30;99.90;;;;;;5017538;28;20069;-83
2022/04/09 11:57:39;;;;;;;4.72;1.10;;;7.60;99.90;;;;;;5017570;28;20034;-81
2022/04/09 12:00:10;;;;;;;6.82;0.80;;;8.00;99.90;;;;;;5018577;28;20030;-80
2022/04/09 12:02:36;;;;;;;8.50;1.20;;;8.40;99.90;;;;;;5016799;28;20045;-80
2022/04/09 12:05:02;;;;;;;6.20;1.02;;;8.50;99.90;;;;;;5016696;28;20042;-85
2022/04/09 12:07:30;;;;;;;6.55;1.23;;;8.40;99.90;;;;;;5017924;28;20041;-81
2022/04/09 12:09:56;;;;;;;4.53;0.90;;;7.70;99.90;;;;;;5018286;28;20034;-81
2022/04/09 12:12:23;;;;;;;4.28;1.23;;;7.00;99.90;;;;;;5017782;28;20517;-81
2022/04/09 12:14:57;;;;;;;4.15;1.00;;;6.30;99.90;;;;;;5018262;28;20046;-84
2022/04/09 12:17:34;;;;;;;4.40;0.98;;;6.00;99.90;;;;;;5017764;28;20049;-83
2022/04/09 12:20:20;;;;;;;3.03;0.70;;;5.90;99.90;;;;;;5016278;28;20046;-81
2022/04/09 12:22:55;;;;;;;5.93;1.10;;;5.80;99.90;;;;;;5000136;28;20042;-82
2022/04/09 12:25:36;;;;;;;3.42;0.85;;;5.80;99.90;;;;;;5016672;28;20371;-80
2022/04/09 12:28:03;;;;;;;4.63;1.50;;;6.10;99.90;;;;;;5016772;28;20544;-81
2022/04/09 12:30:42;;;;;;;4.15;1.00;;;6.60;99.90;;;;;;5017335;28;20050;-82
2022/04/09 12:33:12;;;;;;;5.40;0.80;;;7.10;99.90;;;;;;5016442;28;20053;-80
2022/04/09 12:35:39;;;;;;;3.92;1.15;;;7.40;99.90;;;;;;5016637;28;20081;-83
2022/04/09 12:38:05;;;;;;;3.95;1.00;;;7.70;99.90;;;;;;5016252;28;20057;-78
2022/04/09 12:40:32;;;;;;;3.47;0.70;;;7.90;99.90;;;;;;5015941;28;20123;-83
2022/04/09 12:43:00;;;;;;;5.00;0.90;;;8.30;99.90;;;;;;5016051;28;20046;-81
2022/04/09 12:45:27;;;;;;;4.90;0.70;;;8.60;99.90;;;;;;5000379;28;20038;-82
2022/04/09 12:47:54;;;;;;;3.90;0.80;;;8.70;99.90;;;;;;5016672;28;20102;-81
2022/04/09 12:50:34;;;;;;;5.55;0.80;;;9.00;99.90;;;;;;5016936;28;20078;-83
2022/04/09 12:53:02;;;;;;;4.13;1.17;;;9.20;99.90;;;;;;5018851;28;20033;-79
2022/04/09 12:55:30;;;;;;;6.60;0.82;;;9.40;99.90;;;;;;5016739;28;20042;-81
2022/04/09 12:57:56;;;;;;;2.75;0.60;;;9.50;99.90;;;;;;5015908;28;20042;-83
2022/04/09 13:00:24;;;;;;;5.60;0.77;;;9.40;99.90;;;;;;5015408;28;20038;-83
2022/04/09 13:02:50;;;;;;;6.05;0.98;;;9.30;99.90;;;;;;5016121;28;20127;-82
2022/04/09 13:05:18;;;;;;;5.85;1.27;;;9.30;99.90;;;;;;5016168;28;20049;-84
2022/04/09 13:07:45;;;;;;;3.60;1.35;;;9.20;99.90;;;;;;5015734;28;20049;-80
2022/04/09 13:10:13;;;;;;;11.98;1.42;;;9.00;99.90;;;;;;5015788;28;20038;-81
2022/04/09 13:12:39;;;;;;;7.30;1.20;;;8.70;99.90;;;;;;5015134;28;20216;-82
2022/04/09 13:15:06;;;;;;;4.60;0.98;;;8.50;99.90;;;;;;5016006;28;20037;-85
2022/04/09 13:17:34;;;;;;;6.00;0.93;;;8.60;99.90;;;;;;5015884;28;20046;-83
2022/04/09 13:20:09;;;;;;;3.92;0.88;;;8.80;99.90;;;;;;5016414;28;20123;-84
2022/04/09 13:22:35;;;;;;;4.70;0.70;;;8.70;99.90;;;;;;5015391;28;20133;-81
2022/04/09 13:25:04;;;;;;;1.75;0.50;;;8.60;99.90;;;;;;5015345;28;20073;-82
2022/04/09 13:27:30;;;;;;;3.08;0.82;;;8.70;99.90;;;;;;5015437;28;20048;-82
2022/04/09 13:29:56;;;;;;;5.53;1.15;;;8.50;99.90;;;;;;4998640;28;20042;-84
2022/04/09 13:32:22;;;;;;;12.93;0.90;;;8.20;99.90;;;;;;4998708;28;20077;-82
2022/04/09 13:34:48;;;;;;;5.20;0.65;;;7.80;99.90;;;;;;5016324;28;20144;-81
2022/04/09 13:37:14;;;;;;;3.35;1.15;;;7.60;99.90;;;;;;5015680;28;20038;-83
2022/04/09 13:39:41;;;;;;;1.05;0.40;;;7.40;99.90;;;;;;5015616;28;20096;-77
2022/04/09 13:42:10;;;;;;;2.97;0.60;;;7.60;99.90;;;;;;5014757;28;20100;-80
2022/04/09 13:44:38;;;;;;;2.67;0.50;;;8.10;99.90;;;;;;5015339;28;20092;-80
2022/04/09 13:47:07;;;;;;;2.83;0.90;;;8.50;99.90;;;;;;4998846;28;20070;-83
2022/04/09 13:49:34;;;;;;;4.40;0.70;;;8.80;99.90;;;;;;4998836;28;20042;-83
2022/04/09 13:52:00;;;;;;;4.05;0.90;;;9.10;99.90;;;;;;5015151;28;20046;-86
2022/04/09 13:54:26;;;;;;;4.75;1.02;;;9.30;99.90;;;;;;5014553;28;20073;-84
2022/04/09 13:56:51;;;;;;;7.03;1.25;;;9.40;99.90;;;;;;5016150;28;20042;-82
2022/04/09 13:59:18;;;;;;;5.63;0.90;;;9.70;99.90;;;;;;4998638;28;20088;-82
2022/04/09 14:01:44;;;;;;;4.50;0.88;;;9.80;99.90;;;;;;5014814;28;20114;-82
2022/04/09 14:04:10;;;;;;;4.57;0.73;;;9.60;99.90;;;;;;5015318;28;20040;-81
2022/04/09 14:06:35;;;;;;;4.47;1.30;;;9.10;99.90;;;;;;5014655;28;20490;-81
2022/04/09 14:09:01;;;;;;;2.67;0.75;;;9.00;99.90;;;;;;4998253;28;20038;-81
2022/04/09 14:11:28;;;;;;;4.53;0.95;;;8.70;99.90;;;;;;5015980;28;20510;-84
2022/04/09 14:13:53;;;;;;;1.85;0.60;;;8.50;99.90;;;;;;5015809;28;20158;-80
2022/04/09 14:16:19;;;;;;;4.30;0.90;;;8.40;99.90;;;;;;5014608;28;20435;-80
2022/04/09 14:18:45;;;;;;;4.47;1.02;;;8.10;99.90;;;;;;5013959;28;20128;-81
2022/04/09 14:21:11;;;;;;;4.75;0.80;;;7.70;99.90;;;;;;5014133;28;20504;-83
2022/04/09 14:23:36;;;;;;;4.13;1.00;;;7.50;99.90;;;;;;5014454;28;20042;-83
2022/04/09 14:26:02;;;;;;;3.97;1.20;;;7.40;99.90;;;;;;4998648;28;20037;-81
2022/04/09 14:28:28;;;;;;;4.60;1.05;;;7.40;99.90;;;;;;5014336;28;20391;-79
2022/04/09 14:30:54;;;;;;;5.80;1.15;;;7.30;99.90;;;;;;5013815;28;20068;-84
2022/04/09 14:33:20;;;;;;;10.40;2.13;;;7.20;99.90;;;;;;5016154;28;20038;-81
2022/04/09 14:35:48;;;;;;;8.80;1.73;;;7.40;99.90;;;;;;5015811;28;20046;-81
2022/04/09 14:38:13;;;;;;;5.68;1.45;;;7.40;99.90;;;;;;5013963;28;20104;-80
2022/04/09 14:40:39;;;;;;;6.97;1.20;;;7.30;99.90;;;;;;5014068;28;20045;-80
2022/04/09 14:43:05;;;;;;;8.30;1.27;;;7.70;99.90;;;;;;5013937;28;20048;-82
2022/04/09 14:45:30;;;;;;;6.95;1.23;;;8.20;99.90;;;;;;5013973;28;20108;-84
2022/04/09 14:47:56;;;;;;;6.78;1.55;;;8.50;99.90;;;;;;5015357;28;20059;-83
2022/04/09 14:50:22;;;;;;;4.53;1.08;;;8.70;99.90;;;;;;5014224;28;20037;-83
2022/04/09 14:52:48;;;;;;;5.28;1.27;;;9.00;99.90;;;;;;5014119;28;20081;-81
2022/04/09 14:55:14;;;;;;;6.50;1.70;;;9.10;99.90;;;;;;4997760;28;20034;-82
2022/04/09 14:57:40;;;;;;;7.38;1.30;;;9.40;99.90;;;;;;5015913;28;20496;-83
2022/04/09 15:00:10;;;;;;;7.63;2.00;;;9.20;99.90;;;;;;5014563;28;20394;-81
2022/04/09 15:02:40;;;;;;;3.85;1.25;;;9.30;99.90;;;;;;5014257;28;20402;-84
2022/04/09 15:05:08;;;;;;;8.65;1.35;;;8.90;99.90;;;;;;5013734;28;20151;-79
2022/04/09 15:07:34;;;;;;;11.45;1.30;;;8.60;99.90;;;;;;5013014;28;20124;-81
2022/04/09 15:10:01;;;;;;;4.43;1.10;;;8.20;99.90;;;;;;5013304;28;20141;-80
2022/04/09 15:12:27;;;;;;;7.93;1.35;;;7.90;99.90;;;;;;5018060;28;20052;-81
2022/04/09 15:14:52;;;;;;;7.22;1.70;;;7.70;99.90;;;;;;5017374;28;20393;-82
2022/04/09 15:17:18;;;;;;;8.38;1.95;;;7.70;99.90;;;;;;5017588;28;20053;-82
2022/04/09 15:19:44;;;;;;;4.60;1.42;;;7.80;99.90;;;;;;5017670;28;20046;-84
2022/04/09 15:22:11;;;;;;;8.45;1.60;;;7.80;99.90;;;;;;5016901;28;20448;-81
2022/04/09 15:24:37;;;;;;;6.80;1.20;;;7.50;99.90;;;;;;5000858;28;20044;-83
2022/04/09 15:27:03;;;;;;;4.22;1.02;;;7.00;99.90;;;;;;5001400;28;20120;-80
2022/04/09 15:29:28;;;;;;;7.55;1.90;;;6.70;99.90;;;;;;5001874;28;20046;-78
2022/04/09 15:31:54;;;;;;;6.03;1.33;;;6.50;99.90;;;;;;5018579;28;20096;-83
2022/04/09 15:34:19;;;;;;;8.10;1.95;;;6.40;99.90;;;;;;5018581;28;20041;-80
2022/04/09 15:36:45;;;;;;;8.45;1.85;;;6.50;99.90;;;;;;5017353;28;20091;-83
2022/04/09 15:39:10;;;;;;;8.48;1.52;;;6.80;99.90;;;;;;5017177;28;20038;-84
2022/04/09 15:41:36;;;;;;;6.03;1.00;;;7.20;99.90;;;;;;5016996;28;20371;-82
2022/04/09 15:44:05;;;;;;;9.43;1.50;;;7.20;99.90;;;;;;5017025;28;20045;-80
2022/04/09 15:46:31;;;;;;;6.03;1.10;;;7.30;99.90;;;;;;5016621;28;20038;-84
2022/04/09 15:48:57;;;;;;;6.40;1.50;;;7.40;99.90;;;;;;5017189;28;20045;-83
2022/04/09 15:51:22;;;;;;;7.18;0.90;;;7.60;99.90;;;;;;5016980;28;20394;-80
2022/04/09 15:53:48;;;;;;;5.35;1.00;;;7.80;99.90;;;;;;5016406;28;20116;-85
2022/04/09 15:56:14;;;;;;;4.13;1.75;;;8.00;99.90;;;;;;5002330;28;20045;-84
2022/04/09 15:58:39;;;;;;;2.80;0.80;;;8.10;99.90;;;;;;5027871;28;20052;-83
2022/04/09 16:01:07;;;;;;;7.05;1.85;;;8.30;99.90;;;;;;5036845;28;20026;-80
2022/04/09 16:03:34;;;;;;;11.65;2.60;;;8.40;99.90;;;;;;5025084;28;20505;-81
2022/04/09 16:05:59;;;;;;;4.90;1.20;;;8.30;99.90;;;;;;5020843;28;20057;-80
2022/04/09 16:08:25;;;;;;;5.20;1.30;;;8.10;99.90;;;;;;5018939;28;20042;-79
2022/04/09 16:10:52;;;;;;;7.53;1.48;;;8.10;99.90;;;;;;5017040;28;20470;-82
2022/04/09 16:13:18;;;;;;;4.72;1.25;;;8.20;99.90;;;;;;5017182;28;20081;-83
2022/04/09 16:15:43;;;;;;;8.93;1.20;;;8.20;99.90;;;;;;5018299;28;20053;-81
2022/04/09 16:18:09;;;;;;;6.82;1.40;;;8.20;99.90;;;;;;5018766;28;20067;-85
2022/04/09 16:20:35;;;;;;;7.50;1.17;;;8.30;99.90;;;;;;5017842;28;20034;-84
2022/04/09 16:23:02;;;;;;;8.23;1.27;;;8.20;99.90;;;;;;5015328;28;20144;-85
2022/04/09 16:25:28;;;;;;;6.85;1.40;;;8.30;99.90;;;;;;5016898;28;20041;-83
2022/04/09 16:27:53;;;;;;;7.85;1.92;;;8.00;99.90;;;;;;5016215;28;20044;-81
2022/04/09 16:30:19;;;;;;;3.50;0.75;;;8.00;99.90;;;;;;4999691;28;20124;-81
2022/04/09 16:32:45;;;;;;;6.68;1.10;;;7.60;99.90;;;;;;4999947;28;20386;-80
2022/04/09 16:35:10;;;;;;;5.15;1.00;;;7.40;99.90;;;;;;4999666;28;20486;-84
2022/04/09 16:37:36;;;;;;;6.85;1.17;;;7.40;99.90;;;;;;5015394;28;20064;-79
2022/04/09 16:40:03;;;;;;;4.00;0.90;;;7.70;99.90;;;;;;5015769;28;20445;-82
2022/04/09 16:42:29;;;;;;;10.13;1.30;;;8.00;99.90;;;;;;5015378;28;20037;-83
2022/04/09 16:44:55;;;;;;;6.43;0.75;;;8.10;99.90;;;;;;5015561;28;20041;-80
2022/04/09 16:47:21;;;;;;;3.60;0.90;;;8.00;99.90;;;;;;4998891;28;20042;-82
2022/04/09 16:49:47;;;;;;;8.15;2.17;;;7.90;99.90;;;;;;5015563;28;20069;-81
2022/04/09 16:52:13;;;;;;;3.65;1.48;;;7.70;99.90;;;;;;5015252;28;20052;-83
2022/04/09 16:54:41;;;;;;;6.10;1.10;;;7.50;99.90;;;;;;5014900;28;20050;-80
2022/04/09 16:57:07;;;;;;;7.30;0.80;;;7.30;99.90;;;;;;5014374;28;20095;-80
2022/04/09 16:59:33;;;;;;;9.45;1.58;;;7.30;99.90;;;;;;5014126;28;20046;-81